Latest Coastal Weather Observations for Maningrida Airport

IDD60701

Issued at 2:51 pm CST Monday 6 July 2015 (issued every 10 minutes, with the page automatically refreshed every 10 minutes)

About coastal observations | Map of coastal stations | Coastal observations for NT | Marine services | Other Formats
Station Details ID: 014405 Name: MANINGRIDA AIRPORT Lat: -12.06 Lon: 134.23 Height: 28.1 m
Data from the previous 72 hours. | See also: Recent months at Maningrida Airport
Date/Time
CST
Temp

°C
Wind Pressure Rain
since 9am
mm
Weather Cloud Vis
km
Sea
Height
m
Swell
Dir
 
Speed
knots
Gust
knots
hPa Trend Height
m
Period
s
Dir
06/02:30pm 28.8 ENE 7 11 1011.2 - 0.0 - Cloudy 10 - - - -
06/02:00pm 28.7 ENE 9 13 1011.6 - 0.0 - Cloudy 10 - - - -
06/01:30pm 28.4 ENE 10 13 1012.0 - 0.0 - Cloudy 10 - - - -
06/01:00pm 28.3 ENE 10 14 1012.4 - 0.0 - Cloudy 10 - - - -
06/12:30pm 28.2 E 8 11 1012.9 - 0.0 - Cloudy 10 - - - -
06/12:00pm 28.0 E 7 13 1013.3 - 0.0 - Mostly cloudy 10 - - - -
06/11:30am 27.7 E 10 15 1013.6 - 0.0 - Cloudy 10 - - - -
06/11:00am 26.5 E 10 15 1013.9 - 0.0 - Cloudy 10 - - - -
06/10:30am 26.4 ESE 10 16 1014.2 - 0.0 - Cloudy 10 - - - -
06/10:00am 25.3 ESE 8 13 1014.4 - 0.0 - Partly cloudy 10 - - - -
06/09:30am 24.5 ESE 10 15 1014.3 - 0.0 - Partly cloudy 10 - - - -
06/09:00am 23.5 SE 8 11 1014.3 - 0.0 - Cloudy 10 - - - -
06/08:30am 22.8 SE 7 12 1014.4 - 0.0 - Partly cloudy 10 - - - -
06/08:00am 21.8 SE 6 9 1014.0 - 0.0 - Cloudy 10 - - - -
06/07:30am 20.9 SSE 3 5 1013.8 - 0.0 - Partly cloudy 10 - - - -
06/07:00am 20.6 S 3 4 1013.6 - 0.0 - Partly cloudy 10 - - - -
06/06:30am 20.3 S 1 4 1013.3 - 0.0 - Partly cloudy 10 - - - -
06/06:00am 20.4 S 4 5 1013.1 - 0.0 - Cloudy 10 - - - -
06/05:30am 21.4 SE 6 7 1012.8 - 0.0 - Cloudy 10 - - - -
06/05:00am 21.0 SE 7 9 1012.8 - 0.0 - Partly cloudy 10 - - - -
06/04:30am 21.1 ESE 7 10 1012.7 - 0.0 - - 10 - - - -
06/04:00am 20.9 ESE 6 8 1012.6 - 0.0 - - 10 - - - -
06/03:30am 20.7 SE 5 6 1012.6 - 0.0 - - 10 - - - -
06/03:00am 21.2 SE 6 9 1012.5 - 0.0 - - 10 - - - -
06/02:30am 21.4 SE 7 10 1012.7 - 0.0 - - 10 - - - -
06/02:00am 21.9 SE 9 12 1012.8 - 0.0 - - 10 - - - -
06/01:30am 22.1 SE 9 12 1012.8 - 0.0 - - 10 - - - -
06/01:00am 22.3 ESE 9 12 1013.1 - 0.0 - - 10 - - - -
06/12:30am 22.3 ESE 8 12 1013.1 - 0.0 - - 10 - - - -
06/12:00am 22.0 SE 6 9 1013.3 - 0.0 - - 10 - - - -
 
Date/Time
CST
Temp

°C
Wind Pressure Rain
since 9am
mm
Weather Cloud Vis
km
Sea
Height
m
Swell
Dir
 
Speed
knots
Gust
knots
hPa Trend Height
m
Period
s
Dir
05/11:30pm 22.5 ESE 7 9 1013.4 - 0.0 - - 10 - - - -
05/11:00pm 22.5 SE 7 9 1013.5 - 0.0 - - 10 - - - -
05/10:30pm 22.7 ESE 6 7 1013.6 - 0.0 - - 10 - - - -
05/10:00pm 22.7 ESE 5 6 1013.8 - 0.0 - - 10 - - - -
05/09:30pm 23.3 E 5 7 1013.8 - 0.0 - - 10 - - - -
05/09:00pm 23.6 ESE 6 8 1013.6 - 0.0 - - 10 - - - -
05/08:30pm 23.9 E 6 8 1013.4 - 0.0 - - 10 - - - -
05/08:00pm 23.9 ENE 4 5 1013.1 - 0.0 - - 10 - - - -
05/07:30pm 24.1 ENE 5 7 1012.7 - 0.0 - - 10 - - - -
05/07:00pm 24.4 ENE 6 8 1012.4 - 0.0 - - 10 - - - -
05/06:30pm 24.8 ENE 6 7 1012.2 - 0.0 - - 10 - - - -
05/06:00pm 25.6 ENE 7 9 1011.9 - 0.0 - - 10 - - - -
05/05:30pm 26.3 ENE 8 12 1011.7 - 0.0 - - 10 - - - -
05/05:00pm 27.2 ENE 8 11 1011.6 - 0.0 - - 10 - - - -
05/04:30pm 28.2 NE 8 13 1011.5 - 0.0 - - 10 - - - -
05/04:00pm 28.7 ENE 8 11 1011.5 - 0.0 - - 10 - - - -
05/03:30pm 28.2 NE 7 10 1011.5 - 0.0 - Partly cloudy 10 - - - -
05/03:00pm 28.5 NE 8 11 1011.7 - 0.0 - Mostly clear 10 - - - -
05/02:30pm 28.8 NE 7 10 1012.0 - 0.0 - Partly cloudy 10 - - - -
05/02:00pm 28.4 ENE 7 11 1012.4 - 0.0 - Cloudy 10 - - - -
05/01:30pm 27.9 NE 10 16 1012.7 - 0.0 - Cloudy 10 - - - -
05/01:00pm 28.5 ENE 8 13 1012.9 - 0.0 - Partly cloudy 10 - - - -
05/12:30pm 28.8 ESE 8 14 1013.3 - 0.0 - Partly cloudy 10 - - - -
05/12:00pm 28.4 E 9 14 1013.9 - 0.0 - Mostly clear 10 - - - -
05/11:30am 28.1 E 8 11 1014.3 - 0.0 - Partly cloudy 10 - - - -
05/11:00am 27.3 ESE 10 13 1014.5 - 0.0 - Partly cloudy 10 - - - -
05/10:30am 27.1 E 9 15 1014.7 - 0.0 - - 10 - - - -
05/10:00am 25.9 E 8 13 1014.9 - 0.0 - - 10 - - - -
05/09:30am 24.9 ESE 9 12 1015.0 - 0.0 - - 10 - - - -
05/09:00am 23.9 SE 9 12 1015.1 - 0.0 - - 10 - - - -
05/08:30am 22.5 SE 7 9 1014.7 - 0.0 - - 10 - - - -
05/08:00am 20.8 SSE 6 7 1014.5 - 0.0 - - 10 - - - -
05/07:30am 19.4 SSE 6 9 1014.1 - 0.0 - - 10 - - - -
05/07:00am 18.6 SSE 5 7 1013.9 - 0.0 - - 10 - - - -
05/06:30am 18.7 SSE 6 8 1013.7 - 0.0 - - 10 - - - -
05/06:00am 18.8 SSE 5 7 1013.4 - 0.0 - - 10 - - - -
05/05:30am 18.9 SSE 5 6 1013.3 - 0.0 - - 10 - - - -
05/05:00am 19.2 SSE 5 7 1013.3 - 0.0 - - 10 - - - -
05/04:30am 19.2 SSE 5 7 1013.1 - 0.0 - - 10 - - - -
05/04:00am 19.3 SSE 5 6 1013.1 - 0.0 - - 10 - - - -
05/03:30am 19.3 SSE 5 6 1013.3 - 0.0 - - 10 - - - -
05/03:00am 19.2 SSE 4 5 1013.5 - 0.0 - - 10 - - - -
05/02:30am 19.5 SSE 4 5 1013.6 - 0.0 - Partly cloudy 10 - - - -
05/02:00am 19.6 SSE 4 6 1013.6 - 0.0 - Partly cloudy 10 - - - -
05/01:30am 20.2 SSE 3 5 1013.6 - 0.0 - Partly cloudy 10 - - - -
05/01:00am 20.5 SSE 3 5 1013.7 - 0.0 - - 10 - - - -
05/12:30am 21.3 SE 5 6 1013.8 - 0.0 - - 10 - - - -
05/12:00am 22.2 ESE 7 9 1013.6 - 0.0 - - 10 - - - -
 
Date/Time
CST
Temp

°C
Wind Pressure Rain
since 9am
mm
Weather Cloud Vis
km
Sea
Height
m
Swell
Dir
 
Speed
knots
Gust
knots
hPa Trend Height
m
Period
s
Dir
04/11:30pm 22.4 ESE 7 9 1013.6 - 0.0 - - 10 - - - -
04/11:00pm 22.7 E 5 6 1013.2 - 0.0 - - 10 - - - -
04/10:30pm 22.8 E 5 7 1013.4 - 0.0 - Partly cloudy 10 - - - -
04/10:00pm 22.7 E 4 5 1013.4 - 0.0 - Partly cloudy 10 - - - -
04/09:30pm 22.8 E 4 6 1013.3 - 0.0 - - 10 - - - -
04/09:00pm 23.3 E 5 7 1013.1 - 0.0 - Mostly clear 10 - - - -
04/08:30pm 23.4 ENE 4 5 1012.8 - 0.0 - Partly cloudy 10 - - - -
04/08:00pm 22.9 ENE 4 6 1012.5 - 0.0 - - 10 - - - -
04/07:30pm 23.2 ENE 4 5 1012.1 - 0.0 - - 10 - - - -
04/07:00pm 23.8 ENE 3 4 1011.9 - 0.0 - - 10 - - - -
04/06:30pm 24.8 ENE 3 4 1011.7 - 0.0 - - 10 - - - -
04/06:00pm 26.1 NE 5 7 1011.4 - 0.0 - - 10 - - - -
04/05:30pm 27.1 NE 6 9 1011.2 - 0.0 - - 10 - - - -
04/05:00pm 27.8 NE 7 9 1010.9 - 0.0 - - 10 - - - -
04/04:30pm 28.7 NNE 7 10 1010.8 - 0.0 - - 10 - - - -
04/04:00pm 28.6 NE 8 11 1010.7 - 0.0 - - 10 - - - -
04/03:30pm 29.3 E 7 11 1010.5 - 0.0 - - 10 - - - -
04/03:00pm 29.4 E 8 13 1010.7 - 0.0 - - 10 - - - -
04/02:30pm 29.6 ESE 9 13 1011.0 - 0.0 - - 10 - - - -
04/02:00pm 29.0 ESE 10 16 1011.4 - 0.0 - - 10 - - - -
04/01:30pm 29.2 ESE 10 15 1011.8 - 0.0 - - 10 - - - -
04/01:00pm 28.2 SE 11 15 1012.5 - 0.0 - - 10 - - - -
04/12:30pm 28.0 SE 11 17 1013.2 - 0.0 - - 10 - - - -
04/12:00pm 27.3 SE 10 14 1013.7 - 0.0 - - 10 - - - -
04/11:30am 26.2 SE 11 18 1014.3 - 0.0 - - 10 - - - -
04/11:00am 25.7 SE 13 17 1014.8 - 0.0 - - 10 - - - -
04/10:30am 25.3 SE 10 15 1015.2 - 0.0 - - 10 - - - -
04/10:00am 24.8 SE 10 14 1015.4 - 0.0 - - 10 - - - -
04/09:30am 23.6 SE 9 14 1015.4 - 0.0 - - 10 - - - -
04/09:00am 22.5 SE 8 11 1015.5 - 0.0 - - 10 - - - -
04/08:30am 20.5 SSE 6 10 1015.3 - 0.0 - Partly cloudy 10 - - - -
04/08:00am 18.3 SSE 6 9 1015.2 - 0.0 - Partly cloudy 10 - - - -
04/07:30am 17.3 SSE 5 8 1014.9 - 0.0 - - 10 - - - -
04/07:00am 17.3 SSE 6 8 1014.8 - 0.0 - - 10 - - - -
04/06:30am 17.3 SSE 6 8 1014.6 - 0.0 - - 10 - - - -
04/06:00am 17.3 SSE 6 8 1014.5 - 0.0 - - 10 - - - -
04/05:30am 17.6 SSE 6 8 1014.4 - 0.0 - - 10 - - - -
04/05:00am 17.8 SSE 5 6 1014.5 - 0.0 - - 10 - - - -
04/04:30am 18.3 SSE 5 7 1014.2 - 0.0 - - 10 - - - -
04/04:00am 18.4 SSE 5 6 1014.1 - 0.0 - - 10 - - - -
04/03:30am 18.9 SE 6 8 1014.1 - 0.0 - - 10 - - - -
04/03:00am 18.9 SE 7 8 1014.1 - 0.0 - - 10 - - - -
04/02:30am 19.7 ESE 7 8 1014.3 - 0.0 - - 10 - - - -
04/02:00am 20.2 ESE 7 9 1014.4 - 0.0 - - 10 - - - -
04/01:30am 20.4 ESE 7 9 1014.5 - 0.0 - - 10 - - - -
04/01:00am 20.9 ESE 9 13 1014.5 - 0.0 - - 10 - - - -
04/12:30am 21.3 ESE 8 11 1014.5 - 0.0 - - 10 - - - -
04/12:00am 21.7 ESE 9 12 1014.7 - 0.0 - - 10 - - - -
 
Date/Time
CST
Temp

°C
Wind Pressure Rain
since 9am
mm
Weather Cloud Vis
km
Sea
Height
m
Swell
Dir
 
Speed
knots
Gust
knots
hPa Trend Height
m
Period
s
Dir
03/11:30pm 22.2 ESE 9 13 1014.9 - 0.0 - - 10 - - - -
03/11:00pm 22.5 ESE 10 13 1014.9 - 0.0 - - 10 - - - -
03/10:30pm 22.9 ESE 10 14 1014.9 - 0.0 - - 10 - - - -
03/10:00pm 23.4 ESE 10 13 1014.8 - 0.0 - - 10 - - - -
03/09:30pm 23.9 ESE 9 12 1014.5 - 0.0 - - 10 - - - -
03/09:00pm 24.5 ESE 10 14 1014.0 - 0.0 - - 10 - - - -
03/08:30pm 23.9 ESE 6 7 1013.6 - 0.0 - - 10 - - - -
03/08:00pm 24.4 ESE 6 7 1013.3 - 0.0 - - 10 - - - -
03/07:30pm 24.0 ESE 5 7 1013.0 - 0.0 - - 10 - - - -
03/07:00pm 24.1 SE 3 4 1012.6 - 0.0 - - 10 - - - -
03/06:56pm 24.2 SE 3 4 1012.6 - 0.0 - - 10 - - - -
03/06:38pm 25.0 SE 3 4 1012.4 - 0.0 - - 5 - - - -
03/06:30pm 25.4 SE 2 3 1012.4 - 0.0 - - 10 - - - -
03/06:00pm 27.7 ESE 6 8 1012.1 - 0.0 - - 10 - - - -
03/05:30pm 28.7 ESE 8 11 1011.8 - 0.0 - Partly cloudy 10 - - - -
03/05:00pm 29.2 SE 9 12 1011.6 - 0.0 - - 10 - - - -
03/04:30pm 29.7 ESE 9 15 1011.5 - 0.0 - Partly cloudy 10 - - - -
03/04:00pm 29.3 SSE 9 14 1011.5 - 0.0 - Partly cloudy 10 - - - -
03/03:30pm 30.0 SSE 8 14 1011.7 - 0.0 - Partly cloudy 10 - - - -
03/03:00pm 29.9 ESE 11 17 1012.0 - 0.0 - Mostly clear 10 - - - -

Other Formats:

Comma delimited format used in spreadsheet applications
http://www.bom.gov.au/fwo/IDD60701/IDD60701.95142.axf

JavaScript Object Notation format (JSON) in row-major order
http://www.bom.gov.au/fwo/IDD60701/IDD60701.95142.json